Time;durP1;ratioP1;P1;durP2;ratioP2;P2;SDS_P1;SDS_P2;PMS_P1;PMS_P2;Temp;Humidity;BMP_temperature;BMP_pressure;BME280_temperature;BME280_humidity;BME280_pressure;Samples;Min_cycle;Max_cycle;Signal;HPM_P1;HPM_P2
2021/10/04 00:02:20;;;;;;;13.53;9.87;;;;;;;7.13;73.16;100874.34;1775113;78;20932;-55
2021/10/04 00:04:47;;;;;;;13.10;8.77;;;;;;;7.10;73.19;100870.36;1774058;79;21589;-55
2021/10/04 00:07:13;;;;;;;13.27;9.93;;;;;;;7.06;73.15;100863.30;1773662;78;21594;-55
2021/10/04 00:09:39;;;;;;;10.37;7.40;;;;;;;7.03;73.13;100875.39;1764859;78;21091;-55
2021/10/04 00:12:07;;;;;;;13.70;8.67;;;;;;;7.01;73.14;100867.83;1756194;80;21024;-55
2021/10/04 00:14:34;;;;;;;7.57;6.77;;;;;;;7.00;73.11;100864.27;1764582;80;20950;-55
2021/10/04 00:17:02;;;;;;;11.33;7.13;;;;;;;7.01;73.16;100859.80;1765093;80;20874;-55
2021/10/04 00:19:30;;;;;;;7.93;6.73;;;;;;;7.00;73.18;100857.57;1770681;80;21424;-55
2021/10/04 00:21:58;;;;;;;14.33;8.90;;;;;;;7.00;73.20;100867.40;1767335;80;20902;-55
2021/10/04 00:24:25;;;;;;;11.93;7.70;;;;;;;6.99;73.28;100862.95;1761561;80;20941;-55
2021/10/04 00:26:51;;;;;;;11.43;9.20;;;;;;;6.98;73.32;100858.05;1763892;80;21569;-55
2021/10/04 00:29:19;;;;;;;16.77;10.77;;;;;;;6.99;73.35;100861.61;1759894;80;21537;-55
2021/10/04 00:31:47;;;;;;;14.87;10.57;;;;;;;6.97;73.31;100857.64;1762773;79;21367;-55
2021/10/04 00:34:13;;;;;;;14.57;10.40;;;;;;;6.97;73.28;100854.08;1765488;79;20927;-55
2021/10/04 00:36:40;;;;;;;13.43;10.27;;;;;;;6.94;73.29;100851.44;1766508;80;20914;-55
2021/10/04 00:39:06;;;;;;;12.60;9.87;;;;;;;6.90;73.27;100843.91;1761939;80;21051;-55
2021/10/04 00:41:33;;;;;;;14.60;11.30;;;;;;;6.86;73.33;100844.88;1765574;78;21823;-56
2021/10/04 00:43:59;;;;;;;12.17;9.37;;;;;;;6.84;73.40;100840.00;1761810;80;21844;-55
2021/10/04 00:46:26;;;;;;;12.93;8.60;;;;;;;6.82;73.48;100839.12;1759676;80;21064;-55
2021/10/04 00:48:53;;;;;;;9.87;8.10;;;;;;;6.82;73.55;100841.34;1761508;80;21077;-55
2021/10/04 00:51:21;;;;;;;12.37;7.70;;;;;;;6.83;73.68;100842.23;1772711;78;21029;-55
2021/10/04 00:53:48;;;;;;;11.57;7.97;;;;;;;6.84;73.76;100845.34;1763379;80;22487;-55
2021/10/04 00:56:16;;;;;;;10.67;8.93;;;;;;;6.84;73.72;100844.89;1761955;80;21124;-55
2021/10/04 00:58:42;;;;;;;10.83;8.87;;;;;;;6.85;73.75;100843.10;1733906;80;21096;-55
2021/10/04 01:01:09;;;;;;;13.67;9.97;;;;;;;6.86;73.72;100845.33;1760687;80;21123;-55
2021/10/04 01:03:35;;;;;;;12.97;10.00;;;;;;;6.86;73.66;100839.97;1768030;79;21044;-55
2021/10/04 01:06:02;;;;;;;17.10;10.50;;;;;;;6.83;73.57;100839.11;1767179;80;21117;-54
2021/10/04 01:08:28;;;;;;;12.57;11.27;;;;;;;6.81;73.52;100847.61;1766477;80;20974;-55
2021/10/04 01:10:54;;;;;;;13.83;11.03;;;;;;;6.79;73.48;100846.77;1768443;80;21065;-55
2021/10/04 01:13:21;;;;;;;16.07;11.57;;;;;;;6.76;73.54;100844.58;1758328;80;21102;-55
2021/10/04 01:15:47;;;;;;;16.17;12.90;;;;;;;6.73;73.55;100841.94;1760838;80;21040;-55
2021/10/04 01:18:13;;;;;;;14.13;10.53;;;;;;;6.70;73.43;100840.67;1761525;80;21107;-55
2021/10/04 01:20:40;;;;;;;12.13;10.20;;;;;;;6.66;73.40;100842.50;1759300;80;21148;-55
2021/10/04 01:23:06;;;;;;;13.37;8.50;;;;;;;6.64;73.48;100848.31;1760027;80;21143;-55
2021/10/04 01:25:32;;;;;;;15.03;9.47;;;;;;;6.64;73.50;100855.00;1761924;80;21072;-55
2021/10/04 01:27:59;;;;;;;14.67;8.77;;;;;;;6.65;73.49;100850.55;1757957;80;21048;-55
2021/10/04 01:30:28;;;;;;;16.47;10.97;;;;;;;6.65;73.48;100849.20;1764863;80;21128;-55
2021/10/04 01:32:54;;;;;;;13.27;10.07;;;;;;;6.63;73.52;100843.91;1763598;80;20982;-54
2021/10/04 01:35:21;;;;;;;16.90;11.37;;;;;;;6.64;73.47;100846.09;1763670;80;21361;-55
2021/10/04 01:37:47;;;;;;;15.73;11.33;;;;;;;6.62;73.41;100845.25;1763428;80;20949;-54
2021/10/04 01:40:14;;;;;;;22.37;12.77;;;;;;;6.59;73.32;100855.54;1765896;80;21384;-54
2021/10/04 01:42:40;;;;;;;18.83;13.33;;;;;;;6.57;73.39;100853.33;1767955;80;20937;-54
2021/10/04 01:45:11;;;;;;;16.70;12.10;;;;;;;6.55;73.38;100852.46;1764951;78;20980;-54
2021/10/04 01:47:38;;;;;;;20.93;12.93;;;;;;;6.53;73.38;100858.77;1768949;80;21436;-54
2021/10/04 01:50:05;;;;;;;18.00;12.87;;;;;;;6.49;73.34;100856.57;1763942;80;20949;-54
2021/10/04 01:52:32;;;;;;;14.53;11.40;;;;;;;6.47;73.30;100861.05;1760849;80;21427;-54
2021/10/04 01:54:58;;;;;;;15.97;10.33;;;;;;;6.45;73.29;100862.89;1762228;80;21132;-54
2021/10/04 01:57:24;;;;;;;11.97;9.53;;;;;;;6.44;73.24;100857.10;1769801;79;20925;-55
2021/10/04 01:59:51;;;;;;;12.57;9.17;;;;;;;6.43;73.31;100868.70;1764636;80;21384;-55
2021/10/04 02:02:17;;;;;;;15.07;9.67;;;;;;;6.43;73.30;100868.70;1767830;80;21096;-55
2021/10/04 02:04:44;;;;;;;18.53;10.40;;;;;;;6.44;73.33;100863.79;1762474;80;20997;-55
2021/10/04 02:07:11;;;;;;;15.23;11.63;;;;;;;6.43;73.45;100870.92;1771742;78;21087;-55
2021/10/04 02:09:37;;;;;;;19.57;11.20;;;;;;;6.42;73.45;100864.25;1769275;79;21036;-55
2021/10/04 02:12:04;;;;;;;16.07;12.23;;;;;;;6.43;73.43;100874.05;1771187;78;21110;-55
2021/10/04 02:14:30;;;;;;;17.60;13.20;;;;;;;6.40;73.48;100868.28;1769827;79;20913;-55
2021/10/04 02:16:56;;;;;;;20.00;13.40;;;;;;;6.39;73.51;100871.86;1754480;79;21527;-55
2021/10/04 02:19:23;;;;;;;18.03;14.33;;;;;;;6.38;73.52;100878.59;1755019;79;21460;-55
2021/10/04 02:21:49;;;;;;;15.43;13.63;;;;;;;6.36;73.62;100877.72;1753488;79;21003;-55
2021/10/04 02:24:15;;;;;;;20.03;14.23;;;;;;;6.34;73.67;100880.41;1754715;79;20980;-55
2021/10/04 02:26:41;;;;;;;17.67;12.93;;;;;;;6.33;73.80;100879.09;1756113;79;20999;-55
2021/10/04 02:29:08;;;;;;;19.43;11.93;;;;;;;6.33;73.89;100878.63;1755831;79;21011;-55
2021/10/04 02:31:35;;;;;;;18.73;12.80;;;;;;;6.33;73.84;100878.63;1754228;79;22256;-55
2021/10/04 02:34:01;;;;;;;15.07;12.60;;;;;;;6.33;73.95;100870.61;1751317;79;21177;-55
2021/10/04 02:36:27;;;;;;;16.27;11.17;;;;;;;6.36;74.14;100881.73;1774436;79;22252;-55
2021/10/04 02:38:54;;;;;;;15.83;11.90;;;;;;;6.39;74.15;100874.98;1775037;78;22216;-55
2021/10/04 02:41:20;;;;;;;15.83;13.00;;;;;;;6.42;74.10;100882.98;1775909;78;22357;-55
2021/10/04 02:43:46;;;;;;;20.07;12.90;;;;;;;6.42;74.15;100877.63;1775834;78;21684;-55
2021/10/04 02:46:13;;;;;;;16.53;13.23;;;;;;;6.43;74.28;100878.06;1771522;78;21663;-55
2021/10/04 02:48:39;;;;;;;21.17;13.63;;;;;;;6.44;74.30;100873.15;1769458;78;21118;-56
2021/10/04 02:51:05;;;;;;;21.57;15.53;;;;;;;6.44;74.37;100870.02;1771621;79;21091;-55
2021/10/04 02:53:31;;;;;;;22.47;15.17;;;;;;;6.45;74.36;100871.80;1744483;79;21130;-55
2021/10/04 02:55:58;;;;;;;22.07;14.60;;;;;;;6.47;74.33;100871.75;1768815;79;21570;-55
2021/10/04 02:58:26;;;;;;;20.03;13.80;;;;;;;6.45;74.33;100875.81;1751273;79;21553;-55
2021/10/04 03:00:52;;;;;;;19.70;12.77;;;;;;;6.46;74.28;100871.34;1770154;78;21484;-55
2021/10/04 03:03:19;;;;;;;19.23;12.37;;;;;;;6.47;74.24;100875.76;1767552;79;21067;-55
2021/10/04 03:05:45;;;;;;;15.73;11.00;;;;;;;6.49;74.21;100875.75;1752614;79;21099;-55
2021/10/04 03:08:11;;;;;;;17.37;12.03;;;;;;;6.49;74.23;100875.75;1765959;78;22333;-55
2021/10/04 03:10:38;;;;;;;17.27;12.03;;;;;;;6.50;74.21;100878.41;1773685;78;21050;-55
2021/10/04 03:13:05;;;;;;;20.90;13.73;;;;;;;6.51;74.12;100880.63;1744757;78;20896;-55
2021/10/04 03:15:31;;;;;;;19.87;13.93;;;;;;;6.52;74.15;100885.96;1768585;78;21082;-55
2021/10/04 03:17:58;;;;;;;20.77;14.00;;;;;;;6.53;74.10;100881.50;1747821;80;21028;-55
2021/10/04 03:20:24;;;;;;;22.97;13.43;;;;;;;6.53;74.04;100886.84;1736460;79;21078;-55
2021/10/04 03:22:54;;;;;;;17.40;14.37;;;;;;;6.53;73.94;100889.53;1742066;79;21359;-55
2021/10/04 03:25:22;;;;;;;23.20;14.90;;;;;;;6.51;73.92;100894.89;1742601;79;21101;-55
2021/10/04 03:27:48;;;;;;;17.40;12.47;;;;;;;6.49;73.90;100896.70;1745218;79;21167;-55
2021/10/04 03:30:14;;;;;;;17.73;10.27;;;;;;;6.49;73.90;100894.02;1740720;79;21084;-55
2021/10/04 03:32:43;;;;;;;17.37;10.40;;;;;;;6.51;73.87;100894.00;1748865;79;21136;-55
2021/10/04 03:35:10;;;;;;;20.63;10.03;;;;;;;6.51;73.81;100894.89;1770624;78;21364;-55
2021/10/04 03:37:37;;;;;;;14.33;10.90;;;;;;;6.51;73.81;100896.68;1767378;80;21982;-55
2021/10/04 03:40:05;;;;;;;18.80;11.97;;;;;;;6.51;73.83;100896.68;1763138;80;21454;-55
2021/10/04 03:42:31;;;;;;;17.43;12.73;;;;;;;6.51;73.82;100893.55;1762625;80;21110;-55
2021/10/04 03:44:57;;;;;;;15.70;12.70;;;;;;;6.52;73.81;100899.79;1760633;78;21772;-55
2021/10/04 03:47:23;;;;;;;18.83;13.47;;;;;;;6.51;73.80;100900.23;1760019;80;20996;-56
2021/10/04 03:49:50;;;;;;;20.13;14.10;;;;;;;6.53;73.78;100899.77;1761186;79;21036;-56
2021/10/04 03:52:16;;;;;;;16.67;13.40;;;;;;;6.51;73.77;100899.35;1758765;79;21624;-56
2021/10/04 03:54:42;;;;;;;21.03;14.73;;;;;;;6.49;73.74;100899.82;1766082;80;21723;-55
2021/10/04 03:57:09;;;;;;;18.00;13.10;;;;;;;6.48;73.78;100903.39;1766066;80;21529;-55
2021/10/04 03:59:37;;;;;;;26.20;12.13;;;;;;;6.46;73.78;100907.45;1764661;80;20918;-55
2021/10/04 04:02:04;;;;;;;17.83;10.93;;;;;;;6.46;73.84;100906.12;1762659;80;21365;-56
2021/10/04 04:04:30;;;;;;;18.30;11.97;;;;;;;6.46;73.90;100904.78;1759034;79;21449;-56
2021/10/04 04:06:56;;;;;;;15.77;11.80;;;;;;;6.46;73.94;100904.78;1760152;80;21394;-56
2021/10/04 04:09:22;;;;;;;16.60;11.27;;;;;;;6.45;73.98;100907.02;1764517;78;21552;-55
2021/10/04 04:11:49;;;;;;;14.70;11.40;;;;;;;6.45;73.98;100912.37;1752279;79;21509;-55
2021/10/04 04:14:15;;;;;;;15.50;11.97;;;;;;;6.43;73.98;100911.05;1749403;79;21051;-55
2021/10/04 04:16:42;;;;;;;14.47;11.13;;;;;;;6.44;73.92;100918.16;1748820;79;21118;-55
2021/10/04 04:19:09;;;;;;;20.87;11.93;;;;;;;6.43;73.82;100920.86;1757764;79;21600;-55
2021/10/04 04:21:38;;;;;;;19.77;12.50;;;;;;;6.42;73.78;100929.33;1754005;79;21385;-55
2021/10/04 04:26:27;;;;;;;21.90;11.93;;;;;;;6.44;73.64;100930.66;1824721;76;23472;-55
2021/10/04 04:28:53;;;;;;;12.83;10.40;;;;;;;6.39;73.56;100939.17;1793562;78;22568;-55
2021/10/04 04:31:19;;;;;;;22.53;10.10;;;;;;;6.39;73.47;100934.70;1789666;77;21545;-55
2021/10/04 04:33:46;;;;;;;12.63;9.07;;;;;;;6.40;73.42;100937.81;1753419;80;21024;-55
2021/10/04 04:36:12;;;;;;;10.37;8.87;;;;;;;6.42;73.35;100942.70;1752297;79;21048;-55
2021/10/04 04:38:38;;;;;;;11.93;8.73;;;;;;;6.44;73.31;100942.23;1755377;80;21108;-56
2021/10/04 04:41:05;;;;;;;15.10;8.83;;;;;;;6.48;73.26;100936.83;1752325;80;20989;-56
2021/10/04 04:43:31;;;;;;;14.33;10.20;;;;;;;6.50;73.17;100936.36;1756202;79;23148;-56
2021/10/04 04:45:57;;;;;;;12.03;9.13;;;;;;;6.53;73.13;100932.33;1756880;80;21324;-55
2021/10/04 04:48:24;;;;;;;13.70;10.33;;;;;;;6.54;73.03;100929.64;1755563;80;20957;-55
2021/10/04 04:50:50;;;;;;;15.20;10.40;;;;;;;6.55;72.93;100919.34;1757562;80;21135;-56
2021/10/04 04:53:16;;;;;;;16.10;9.93;;;;;;;6.56;72.79;100926.46;1750705;80;21088;-55
2021/10/04 04:55:43;;;;;;;12.50;9.67;;;;;;;6.57;72.66;100934.92;1755117;80;22677;-55
2021/10/04 04:58:09;;;;;;;12.87;9.00;;;;;;;6.56;72.52;100930.47;1756198;80;21036;-55
2021/10/04 05:00:36;;;;;;;13.37;8.60;;;;;;;6.54;72.48;100924.28;1751777;79;20988;-55
2021/10/04 05:03:02;;;;;;;17.30;7.90;;;;;;;6.54;72.44;100928.75;1753808;80;22129;-56
2021/10/04 05:05:29;;;;;;;19.13;8.73;;;;;;;6.55;72.37;100931.86;1754462;79;20981;-55
2021/10/04 05:07:56;;;;;;;17.80;7.80;;;;;;;6.55;72.31;100935.39;1757310;79;21789;-55
2021/10/04 05:10:22;;;;;;;17.00;7.80;;;;;;;6.57;72.27;100945.63;1759741;80;20933;-55
2021/10/04 05:12:49;;;;;;;15.30;8.90;;;;;;;6.58;72.22;100935.36;1755954;79;20917;-55
2021/10/04 05:15:17;;;;;;;15.90;9.50;;;;;;;6.60;72.14;100933.56;1755985;80;20882;-56
2021/10/04 05:17:43;;;;;;;35.07;11.23;;;;;;;6.62;72.09;100937.55;1751456;80;21290;-55
2021/10/04 05:20:11;;;;;;;15.77;9.97;;;;;;;6.62;72.08;100934.43;1756376;80;22111;-54
2021/10/04 05:22:38;;;;;;;18.10;10.10;;;;;;;6.64;72.05;100938.39;1755588;80;21032;-54
2021/10/04 05:25:05;;;;;;;12.87;10.63;;;;;;;6.64;71.96;100935.27;1762409;79;21096;-54
2021/10/04 05:27:33;;;;;;;12.10;9.67;;;;;;;6.65;71.94;100935.70;1755251;80;21048;-54
2021/10/04 05:29:59;;;;;;;13.17;9.13;;;;;;;6.66;71.91;100935.25;1758383;80;20906;-54
2021/10/04 05:32:25;;;;;;;14.20;8.67;;;;;;;6.68;71.82;100941.48;1753874;79;21733;-54
2021/10/04 05:34:51;;;;;;;14.80;8.93;;;;;;;6.72;71.77;100945.90;1754804;80;21176;-54
2021/10/04 05:37:18;;;;;;;13.03;7.07;;;;;;;6.76;71.76;100947.16;1755864;80;21032;-55
2021/10/04 05:39:44;;;;;;;13.07;8.13;;;;;;;6.82;71.65;100954.20;1751365;79;22244;-54
2021/10/04 05:42:10;;;;;;;15.43;8.87;;;;;;;6.86;71.62;100953.27;1754468;79;21547;-54
2021/10/04 05:44:37;;;;;;;13.53;9.87;;;;;;;6.91;71.52;100956.75;1757452;80;21389;-53
2021/10/04 05:47:03;;;;;;;31.63;10.40;;;;;;;6.97;71.37;100953.13;1752100;80;21727;-54
2021/10/04 05:49:29;;;;;;;16.03;10.13;;;;;;;7.00;71.26;100955.28;1751533;79;21064;-55
2021/10/04 05:51:56;;;;;;;11.47;8.40;;;;;;;7.04;71.20;100958.81;1754912;80;21045;-54
2021/10/04 05:54:23;;;;;;;15.40;9.30;;;;;;;7.08;71.23;100969.89;1755909;80;21064;-54
2021/10/04 05:56:49;;;;;;;12.43;8.87;;;;;;;7.11;71.22;100961.83;1754896;80;21108;-54
2021/10/04 05:59:16;;;;;;;15.50;8.77;;;;;;;7.15;71.06;100951.48;1754126;80;21089;-55
2021/10/04 06:01:42;;;;;;;11.70;8.23;;;;;;;7.21;70.87;100950.96;1755883;80;21138;-54
2021/10/04 06:04:08;;;;;;;13.53;7.70;;;;;;;7.29;70.75;100950.84;1748930;80;21155;-53
2021/10/04 06:06:34;;;;;;;11.60;7.30;;;;;;;7.38;70.68;100957.39;1752479;80;21068;-54
2021/10/04 06:09:01;;;;;;;21.83;9.53;;;;;;;7.50;70.56;100961.64;1757383;79;21126;-53
2021/10/04 06:11:27;;;;;;;10.80;8.33;;;;;;;7.63;70.49;100967.24;1755754;80;21041;-54
2021/10/04 06:13:54;;;;;;;16.33;8.07;;;;;;;7.75;70.23;100960.77;1758178;80;21082;-53
2021/10/04 06:16:20;;;;;;;15.17;8.23;;;;;;;7.86;70.04;100961.02;1754812;79;21116;-55
2021/10/04 06:18:46;;;;;;;12.77;8.63;;;;;;;7.94;69.78;100950.15;1754266;80;21108;-54
2021/10/04 06:21:13;;;;;;;14.57;8.83;;;;;;;8.04;69.77;100950.41;1754264;79;21060;-53
2021/10/04 06:23:39;;;;;;;9.40;8.43;;;;;;;8.13;69.73;100944.88;1754630;80;21149;-53
2021/10/04 06:26:05;;;;;;;13.93;8.03;;;;;;;8.24;69.58;100944.67;1761213;79;21024;-53
2021/10/04 06:28:32;;;;;;;8.67;7.13;;;;;;;8.38;69.37;100954.69;1770565;79;21640;-54
2021/10/04 06:30:58;;;;;;;9.20;7.27;;;;;;;8.50;69.14;100946.86;1770253;79;21048;-54
2021/10/04 06:33:25;;;;;;;10.87;8.37;;;;;;;8.61;69.09;100943.02;1772724;79;21106;-54
2021/10/04 06:35:51;;;;;;;12.60;8.30;;;;;;;8.74;69.04;100946.33;1768353;79;21132;-54
2021/10/04 06:38:17;;;;;;;13.58;8.45;;;;;;;8.88;68.76;100948.70;1767167;79;21140;-53
2021/10/04 06:40:44;;;;;;;10.90;8.33;;;;;;;9.00;68.69;100951.13;1769491;79;21053;-53
2021/10/04 06:43:10;;;;;;;11.18;7.58;;;;;;;9.11;68.40;100953.08;1767776;79;21040;-54
2021/10/04 06:45:36;;;;;;;13.08;8.53;;;;;;;9.21;68.19;100949.72;1768712;79;21975;-54
2021/10/04 06:48:04;;;;;;;13.15;8.58;;;;;;;9.31;68.02;100951.27;1769578;79;21476;-54
2021/10/04 06:50:31;;;;;;;22.65;9.53;;;;;;;9.41;67.74;100950.14;1767016;79;21099;-55
2021/10/04 06:52:58;;;;;;;17.57;8.30;;;;;;;9.51;67.42;100950.34;1768630;79;21589;-54
2021/10/04 06:55:25;;;;;;;9.25;7.35;;;;;;;9.60;67.06;100946.53;1771249;79;21107;-55
2021/10/04 06:57:51;;;;;;;10.40;6.33;;;;;;;9.69;67.10;100950.34;1769441;79;21766;-53
2021/10/04 07:00:21;;;;;;;8.90;5.65;;;;;;;9.80;66.85;100954.49;1767947;79;21822;-54
2021/10/04 07:02:52;;;;;;;16.87;5.78;;;;;;;9.93;66.60;100954.19;1768465;79;22262;-55
2021/10/04 07:05:19;;;;;;;9.23;5.47;;;;;;;10.04;66.32;100953.41;1769802;79;21143;-55
2021/10/04 07:07:46;;;;;;;7.97;6.85;;;;;;;10.17;65.99;100955.78;1771403;79;21052;-54
2021/10/04 07:10:14;;;;;;;8.88;6.50;;;;;;;10.29;65.46;100957.27;1770423;79;21052;-55
2021/10/04 07:12:41;;;;;;;17.75;7.95;;;;;;;10.38;65.00;100955.63;1769889;79;21537;-55
2021/10/04 07:15:08;;;;;;;9.88;6.85;;;;;;;10.46;64.58;100960.83;1770289;79;21500;-55
2021/10/04 07:17:35;;;;;;;11.68;8.48;;;;;;;10.52;64.12;100956.14;1768739;79;21012;-55
2021/10/04 07:20:02;;;;;;;11.38;7.78;;;;;;;10.59;63.98;100952.80;1766242;79;22246;-54
2021/10/04 07:22:28;;;;;;;8.00;6.28;;;;;;;10.65;63.79;100954.41;1768407;79;21218;-55
2021/10/04 07:24:54;;;;;;;7.65;6.87;;;;;;;10.71;63.66;100959.64;1770769;79;21103;-55
2021/10/04 07:27:21;;;;;;;9.85;8.38;;;;;;;10.77;63.68;100953.60;1766047;79;21119;-54
2021/10/04 07:29:47;;;;;;;8.18;6.70;;;;;;;10.87;63.60;100954.21;1765147;79;21056;-55
2021/10/04 07:32:13;;;;;;;9.88;7.03;;;;;;;10.94;63.04;100953.09;1774182;79;21438;-56
2021/10/04 07:34:40;;;;;;;6.50;5.62;;;;;;;11.03;62.79;100950.11;1768189;79;21513;-56
2021/10/04 07:37:06;;;;;;;10.13;6.95;;;;;;;11.10;62.50;100957.07;1767140;79;21032;-55
2021/10/04 07:39:33;;;;;;;9.55;5.83;;;;;;;11.17;62.08;100951.90;1767463;79;21056;-56
2021/10/04 07:41:59;;;;;;;7.75;6.50;;;;;;;11.21;62.05;100945.50;1770781;79;21080;-56
2021/10/04 07:44:26;;;;;;;11.03;6.15;;;;;;;11.30;61.73;100952.41;1765307;79;21083;-55
2021/10/04 07:46:53;;;;;;;9.98;5.90;;;;;;;11.37;61.25;100951.27;1770159;79;21726;-55
2021/10/04 07:49:20;;;;;;;7.33;5.45;;;;;;;11.43;61.20;100950.17;1769829;79;21045;-55
2021/10/04 07:51:46;;;;;;;13.25;6.55;;;;;;;11.51;60.82;100953.50;1771635;79;20917;-56
2021/10/04 07:54:12;;;;;;;9.65;6.20;;;;;;;11.57;60.73;100948.78;1771722;79;21523;-55
2021/10/04 07:56:39;;;;;;;8.18;6.55;;;;;;;11.62;60.57;100946.83;1770312;79;20929;-55
2021/10/04 07:59:07;;;;;;;6.08;5.50;;;;;;;11.69;60.50;100953.77;1771824;79;21044;-55
2021/10/04 08:01:34;;;;;;;10.38;6.20;;;;;;;11.77;60.47;100960.29;1771623;79;21562;-55
2021/10/04 08:04:00;;;;;;;10.18;5.20;;;;;;;11.84;60.40;100954.20;1769674;79;20910;-54
2021/10/04 08:06:26;;;;;;;7.80;5.45;;;;;;;11.92;60.28;100953.47;1776535;79;20953;-55
2021/10/04 08:08:54;;;;;;;9.68;5.35;;;;;;;11.98;60.28;100955.52;1771638;79;21000;-56
2021/10/04 08:11:20;;;;;;;8.53;4.20;;;;;;;12.04;59.68;100953.95;1771110;79;21133;-55
2021/10/04 08:13:49;;;;;;;23.12;6.42;;;;;;;12.12;59.04;100945.57;1768555;79;20889;-55
2021/10/04 08:16:15;;;;;;;4.22;3.83;;;;;;;12.21;59.15;100938.97;1776458;79;21681;-55
2021/10/04 08:18:41;;;;;;;8.58;5.72;;;;;;;12.31;58.89;100937.23;1768715;79;22003;-55
2021/10/04 08:21:07;;;;;;;13.30;5.75;;;;;;;12.40;58.71;100936.89;1765507;79;20996;-57
2021/10/04 08:23:37;;;;;;;10.28;5.47;;;;;;;12.48;58.48;100933.91;1769420;79;21124;-55
2021/10/04 08:26:03;;;;;;;7.25;6.05;;;;;;;12.56;58.18;100933.62;1769668;79;21386;-55
2021/10/04 08:28:31;;;;;;;6.78;5.12;;;;;;;12.65;57.51;100934.16;1755934;79;21053;-55
2021/10/04 08:30:57;;;;;;;7.22;4.08;;;;;;;12.70;57.43;100933.49;1755386;80;21070;-56
2021/10/04 08:33:23;;;;;;;5.10;4.70;;;;;;;12.78;57.21;100939.48;1754432;79;21505;-56
2021/10/04 08:35:49;;;;;;;4.87;4.15;;;;;;;12.85;56.57;100941.00;1753330;80;21589;-57
2021/10/04 08:38:16;;;;;;;7.17;4.85;;;;;;;12.93;55.78;100939.85;1755140;80;21626;-56
2021/10/04 08:40:42;;;;;;;8.05;4.60;;;;;;;13.01;55.59;100930.50;1757228;80;21065;-56
2021/10/04 08:43:08;;;;;;;5.95;5.05;;;;;;;13.08;55.36;100927.95;1750208;79;21140;-55
2021/10/04 08:45:35;;;;;;;5.53;4.97;;;;;;;13.18;54.76;100935.27;1751564;80;21045;-56
2021/10/04 08:48:02;;;;;;;8.20;4.90;;;;;;;13.23;53.97;100932.78;1758383;79;21104;-55
2021/10/04 08:50:31;;;;;;;11.45;5.72;;;;;;;13.24;53.74;100934.55;1752907;79;21140;-55
2021/10/04 08:53:01;;;;;;;20.20;6.20;;;;;;;13.30;54.18;100929.81;1754558;80;21495;-56
2021/10/04 08:55:28;;;;;;;5.15;4.40;;;;;;;13.37;54.05;100928.62;1755173;79;20874;-55
2021/10/04 08:57:54;;;;;;;6.55;4.78;;;;;;;13.45;53.32;100937.30;1759295;79;21040;-55
2021/10/04 09:00:20;;;;;;;6.35;4.08;;;;;;;13.51;52.88;100937.06;1757524;79;21807;-55
2021/10/04 09:02:48;;;;;;;5.17;3.87;;;;;;;13.57;52.72;100933.62;1757316;80;21000;-56
2021/10/04 09:05:26;;;;;;;7.58;3.62;;;;;;;13.62;52.74;100932.06;1755986;80;21172;-55
2021/10/04 09:07:55;;;;;;;6.33;2.62;;;;;;;13.71;52.25;100937.09;1751169;80;21385;-56
2021/10/04 09:10:31;;;;;;;2.70;2.50;;;;;;;13.80;51.04;100934.46;1752843;80;21042;-56
2021/10/04 09:13:02;;;;;;;3.72;3.08;;;;;;;13.87;49.67;100935.95;1752312;80;21710;-56
2021/10/04 09:15:46;;;;;;;3.95;2.37;;;;;;;13.94;50.03;100931.59;1753392;80;21056;-56
2021/10/04 09:18:28;;;;;;;4.12;2.05;;;;;;;13.99;49.69;100934.97;1753164;80;21547;-57
2021/10/04 09:21:01;;;;;;;6.92;1.80;;;;;;;14.04;49.58;100934.75;1755809;80;21092;-55
2021/10/04 09:25:40;;;;;;;5.10;2.03;;;;;;;14.24;49.56;100924.41;1792764;78;22628;-55
2021/10/04 09:28:06;;;;;;;2.33;1.40;;;;;;;14.29;49.47;100927.80;1764636;80;21116;-55
2021/10/04 09:30:33;;;;;;;2.20;1.30;;;;;;;14.37;48.02;100931.89;1765930;80;21077;-55
2021/10/04 09:33:01;;;;;;;5.97;1.20;;;;;;;14.46;46.86;100923.86;1736730;80;21002;-55
2021/10/04 09:35:31;;;;;;;12.03;1.20;;;;;;;14.53;46.58;100922.66;1734202;81;21349;-55
2021/10/04 09:38:03;;;;;;;2.80;1.22;;;;;;;14.60;46.33;100930.02;1738259;81;20967;-56
2021/10/04 09:40:43;;;;;;;2.30;1.02;;;;;;;14.66;45.78;100927.02;1734373;81;21343;-56
2021/10/04 09:43:28;;;;;;;1.77;1.00;;;;;;;14.71;45.17;100919.09;1733712;81;21105;-55
2021/10/04 09:46:04;;;;;;;2.90;1.07;;;;;;;14.76;44.93;100915.69;1734889;81;20891;-56
2021/10/04 09:48:32;;;;;;;3.55;1.07;;;;;;;14.81;45.15;100916.80;1734270;81;20982;-56
2021/10/04 09:51:15;;;;;;;2.42;0.90;;;;;;;14.86;45.75;100913.42;1736424;81;21074;-56
2021/10/04 09:53:41;;;;;;;3.62;0.90;;;;;;;14.92;44.77;100915.83;1735291;81;21049;-56
2021/10/04 09:56:08;;;;;;;4.15;0.93;;;;;;;14.98;43.64;100904.68;1736729;81;23079;-56
2021/10/04 09:58:36;;;;;;;3.52;0.95;;;;;;;15.03;43.17;100912.61;1736509;81;21421;-56
2021/10/04 10:01:04;;;;;;;5.60;0.90;;;;;;;15.06;42.73;100906.55;1735318;81;21516;-55
2021/10/04 10:03:39;;;;;;;8.08;1.40;;;;;;;15.10;43.04;100904.10;1737717;81;20930;-56
2021/10/04 10:06:00;;;;;;;5.30;1.00;;;;;;;15.17;42.74;100899.25;1735757;81;20986;-56
2021/10/04 10:08:29;;;;;;;1.60;0.80;;;;;;;15.25;42.78;100898.88;1733661;81;21582;-56
2021/10/04 10:10:58;;;;;;;1.12;0.80;;;;;;;15.28;41.61;100882.45;1733259;81;21131;-56
2021/10/04 10:13:26;;;;;;;4.70;0.90;;;;;;;15.31;41.35;100883.16;1732402;81;21078;-56
2021/10/04 10:16:01;;;;;;;3.52;1.45;;;;;;;15.35;41.26;100881.19;1704220;82;22235;-56
2021/10/04 10:18:34;;;;;;;1.00;0.70;;;;;;;15.37;40.85;100877.45;1675219;84;21447;-55
2021/10/04 10:21:03;;;;;;;7.75;1.10;;;;;;;15.40;40.82;100883.18;1677904;83;21833;-55
2021/10/04 10:23:46;;;;;;;3.90;0.85;;;;;;;15.42;40.85;100875.38;1673039;83;21368;-56
2021/10/04 10:26:41;;;;;;;2.55;0.80;;;;;;;15.48;41.02;100873.70;1703912;81;22502;-56
2021/10/04 10:29:21;;;;;;;1.50;0.80;;;;;;;15.55;40.91;100872.09;1683848;83;21509;-55
2021/10/04 10:31:57;;;;;;;2.15;0.82;;;;;;;15.59;39.83;100869.59;1686919;83;21527;-54
2021/10/04 10:34:39;;;;;;;4.12;1.10;;;;;;;15.61;39.95;100865.86;1689572;84;21082;-55
2021/10/04 10:37:11;;;;;;;2.83;0.80;;;;;;;15.65;40.04;100866.59;1691378;83;21524;-54
2021/10/04 10:39:45;;;;;;;5.22;0.70;;;;;;;15.66;39.69;100856.98;1691287;83;20883;-55
2021/10/04 10:42:17;;;;;;;3.55;0.88;;;;;;;15.66;39.93;100853.39;1668694;83;20919;-55
2021/10/04 10:45:05;;;;;;;7.78;0.80;;;;;;;15.64;39.51;100853.50;1686976;84;20986;-55
2021/10/04 10:47:41;;;;;;;1.15;0.78;;;;;;;15.64;39.65;100861.64;1678650;83;21093;-56
2021/10/04 10:50:27;;;;;;;8.35;1.00;;;;;;;15.62;39.38;100866.27;1679025;84;20962;-56
2021/10/04 10:53:02;;;;;;;3.50;0.70;;;;;;;15.62;39.46;100858.13;1675915;84;21413;-55
2021/10/04 10:55:39;;;;;;;1.52;0.78;;;;;;;15.63;39.97;100855.81;1691364;83;20978;-55
2021/10/04 10:58:14;;;;;;;5.58;0.72;;;;;;;15.65;39.77;100860.66;1692621;83;20997;-54
2021/10/04 11:00:52;;;;;;;2.67;0.70;;;;;;;15.67;39.39;100856.03;1687512;83;22597;-55
2021/10/04 11:03:28;;;;;;;3.12;0.80;;;;;;;15.72;39.54;100855.34;1695053;83;20922;-54
2021/10/04 11:06:02;;;;;;;1.47;0.80;;;;;;;15.75;39.14;100852.44;1690436;83;20926;-55
2021/10/04 11:08:47;;;;;;;3.22;0.70;;;;;;;15.76;39.17;100851.97;1691532;83;20979;-55
2021/10/04 11:11:18;;;;;;;1.05;0.80;;;;;;;15.77;39.22;100849.66;1692203;83;20903;-55
2021/10/04 11:14:00;;;;;;;22.58;1.10;;;;;;;15.78;39.62;100850.94;1691748;83;20990;-56
2021/10/04 11:16:30;;;;;;;15.65;1.10;;;;;;;15.84;39.67;100845.66;1690543;83;20968;-55
2021/10/04 11:18:57;;;;;;;9.20;1.02;;;;;;;15.86;39.21;100843.27;1690138;83;21097;-54
2021/10/04 11:21:27;;;;;;;5.95;0.80;;;;;;;15.85;39.26;100842.86;1686846;83;21130;-55
2021/10/04 11:24:00;;;;;;;6.50;0.70;;;;;;;15.83;39.22;100838.46;1686474;83;21120;-55
2021/10/04 11:26:26;;;;;;;1.72;0.70;;;;;;;15.80;39.43;100844.95;1685682;83;23419;-54
2021/10/04 11:28:59;;;;;;;3.55;0.70;;;;;;;15.79;39.13;100843.67;1703448;82;21620;-55
2021/10/04 11:31:31;;;;;;;1.40;0.80;;;;;;;15.76;39.04;100840.63;1674008;84;21049;-55